Time;durP1;ratioP1;P1;durP2;ratioP2;P2;SDS_P1;SDS_P2;PMS_P1;PMS_P2;Temp;Humidity;BMP_temperature;BMP_pressure;BME280_temperature;BME280_humidity;BME280_pressure;Samples;Min_cycle;Max_cycle;Signal;HPM_P1;HPM_P2
2022/01/08 00:01:38;;;;;;;8.48;6.20;;;0.90;99.90;;;;;;5059743;28;20199;-50
2022/01/08 00:04:07;;;;;;;7.50;5.55;;;1.10;99.90;;;;;;5059940;28;20227;-48
2022/01/08 00:06:35;;;;;;;8.60;6.25;;;1.00;99.90;;;;;;5059001;28;20234;-49
2022/01/08 00:09:02;;;;;;;11.00;7.35;;;1.10;99.90;;;;;;5059841;28;20214;-47
2022/01/08 00:11:30;;;;;;;7.60;6.10;;;1.20;99.90;;;;;;5059605;28;20549;-50
2022/01/08 00:13:58;;;;;;;10.60;6.32;;;1.30;99.90;;;;;;5058216;28;20219;-50
2022/01/08 00:16:25;;;;;;;16.55;10.50;;;1.30;99.90;;;;;;5059045;28;20405;-47
2022/01/08 00:18:54;;;;;;;8.80;5.13;;;1.30;99.90;;;;;;5059590;28;20203;-47
2022/01/08 00:21:24;;;;;;;9.65;6.60;;;1.30;99.90;;;;;;5060118;28;20313;-47
2022/01/08 00:23:51;;;;;;;9.30;5.38;;;1.40;99.90;;;;;;5061178;28;20245;-45
2022/01/08 00:26:19;;;;;;;9.05;6.20;;;1.30;99.90;;;;;;5063627;28;20195;-46
2022/01/08 00:28:47;;;;;;;7.97;5.85;;;1.20;99.90;;;;;;5062445;28;20253;-44
2022/01/08 00:31:15;;;;;;;9.00;5.47;;;1.20;99.90;;;;;;5063230;28;20574;-47
2022/01/08 00:33:43;;;;;;;12.02;6.10;;;1.20;99.90;;;;;;5062417;28;20474;-46
2022/01/08 00:36:10;;;;;;;11.93;6.68;;;1.20;99.90;;;;;;5061632;28;20249;-49
2022/01/08 00:38:38;;;;;;;6.30;5.10;;;1.20;99.90;;;;;;5062756;28;20188;-48
2022/01/08 00:41:05;;;;;;;10.32;5.80;;;1.20;99.90;;;;;;5066148;28;20195;-50
2022/01/08 00:43:37;;;;;;;10.60;6.45;;;1.10;99.90;;;;;;5068031;28;20215;-48
2022/01/08 00:46:04;;;;;;;10.75;5.90;;;1.10;99.90;;;;;;5064877;28;20522;-48
2022/01/08 00:48:33;;;;;;;8.20;6.03;;;1.10;99.90;;;;;;5063012;28;20191;-45
2022/01/08 00:51:00;;;;;;;6.70;4.97;;;1.10;99.90;;;;;;5063727;28;20253;-50
2022/01/08 00:53:28;;;;;;;6.18;4.25;;;1.10;99.90;;;;;;5064048;28;20231;-51
2022/01/08 00:55:55;;;;;;;8.48;5.97;;;1.00;99.90;;;;;;5064515;28;20199;-46
2022/01/08 00:58:24;;;;;;;6.25;4.75;;;1.00;99.90;;;;;;5063985;28;20203;-47
2022/01/08 01:00:51;;;;;;;11.52;6.75;;;1.00;99.90;;;;;;5064559;28;20249;-50
2022/01/08 01:03:18;;;;;;;11.85;4.95;;;1.10;99.90;;;;;;5063154;28;20258;-47
2022/01/08 01:05:46;;;;;;;10.48;5.22;;;1.00;99.90;;;;;;5063093;28;20399;-49
2022/01/08 01:08:13;;;;;;;6.63;4.72;;;1.00;99.90;;;;;;5062323;28;20518;-46
2022/01/08 01:10:41;;;;;;;10.35;5.43;;;1.00;99.90;;;;;;5062454;28;20196;-46
2022/01/08 01:13:11;;;;;;;9.10;5.95;;;1.20;99.90;;;;;;5061908;28;20246;-45
2022/01/08 01:15:38;;;;;;;7.65;5.40;;;1.20;99.90;;;;;;5064469;28;20206;-48
2022/01/08 01:18:06;;;;;;;9.00;6.45;;;1.10;99.90;;;;;;5065118;28;20648;-47
2022/01/08 01:20:35;;;;;;;13.48;8.27;;;1.20;99.90;;;;;;5066457;28;20295;-50
2022/01/08 01:23:10;;;;;;;8.82;6.13;;;1.20;99.90;;;;;;5066346;28;20223;-47
2022/01/08 01:25:48;;;;;;;12.45;7.60;;;1.10;99.90;;;;;;5066343;28;20215;-49
2022/01/08 01:28:39;;;;;;;8.77;5.50;;;1.10;99.90;;;;;;5066801;28;20193;-50
2022/01/08 01:47:17;;;;;;;9.82;6.20;;;1.10;99.90;;;;;;5062383;28;20529;-48
2022/01/08 01:49:46;;;;;;;12.63;5.65;;;1.20;99.90;;;;;;5061792;28;20202;-47
2022/01/08 01:52:16;;;;;;;9.35;6.03;;;1.30;99.90;;;;;;5062145;28;20207;-50
2022/01/08 01:55:00;;;;;;;7.45;5.88;;;1.20;99.90;;;;;;5062741;28;20203;-46
2022/01/08 01:57:28;;;;;;;10.27;6.00;;;1.20;99.90;;;;;;5062254;28;20200;-46
2022/01/08 01:59:57;;;;;;;9.80;6.28;;;1.20;99.90;;;;;;5063091;28;20200;-46
2022/01/08 02:02:27;;;;;;;7.97;5.55;;;1.20;99.90;;;;;;5061573;28;20546;-46
2022/01/08 02:04:56;;;;;;;6.00;4.88;;;1.20;99.90;;;;;;5061206;28;20219;-45
2022/01/08 02:07:26;;;;;;;7.35;5.32;;;1.10;99.90;;;;;;5061571;28;20203;-47
2022/01/08 02:09:56;;;;;;;7.18;5.82;;;1.00;99.90;;;;;;5061005;28;20203;-49
2022/01/08 02:12:24;;;;;;;7.05;5.07;;;1.00;99.90;;;;;;5061602;28;20258;-47
2022/01/08 02:14:52;;;;;;;8.52;5.32;;;1.10;99.90;;;;;;5061338;28;20289;-47
2022/01/08 02:17:19;;;;;;;7.20;5.70;;;1.10;99.90;;;;;;5061393;28;20199;-49
2022/01/08 02:19:52;;;;;;;8.27;5.35;;;1.10;99.90;;;;;;5061171;28;20253;-49
2022/01/08 02:22:20;;;;;;;7.20;4.47;;;1.00;99.90;;;;;;5061160;28;20227;-48
2022/01/08 02:24:49;;;;;;;7.40;6.43;;;1.10;99.90;;;;;;5060882;28;20231;-47
2022/01/08 02:27:17;;;;;;;11.18;5.50;;;1.20;99.90;;;;;;5060781;28;20203;-49
2022/01/08 02:29:46;;;;;;;7.50;6.13;;;1.20;99.90;;;;;;5063293;28;20195;-46
2022/01/08 02:32:19;;;;;;;9.82;5.85;;;1.30;99.90;;;;;;5067581;28;20219;-46
2022/01/08 02:34:48;;;;;;;5.68;4.82;;;1.30;99.90;;;;;;5061010;28;20506;-48
2022/01/08 02:37:20;;;;;;;4.88;4.38;;;1.30;99.90;;;;;;5060762;28;20498;-46
2022/01/08 02:39:49;;;;;;;9.77;6.43;;;1.20;99.90;;;;;;5060350;28;20237;-52
2022/01/08 02:42:20;;;;;;;9.07;5.88;;;1.10;99.90;;;;;;5060643;28;20234;-47
2022/01/08 02:44:49;;;;;;;7.88;5.05;;;1.10;99.90;;;;;;5060234;28;20219;-48
2022/01/08 02:47:22;;;;;;;6.00;5.40;;;1.10;99.90;;;;;;5060339;28;20203;-45
2022/01/08 02:49:52;;;;;;;6.40;4.95;;;1.10;99.90;;;;;;5060592;28;20478;-45
2022/01/08 02:52:22;;;;;;;5.95;4.53;;;1.30;99.90;;;;;;5059619;28;20480;-45
2022/01/08 02:54:50;;;;;;;5.72;5.13;;;1.20;99.90;;;;;;5060122;28;20330;-45
2022/01/08 02:57:17;;;;;;;6.65;5.28;;;1.10;99.90;;;;;;5060455;28;20199;-45
2022/01/08 02:59:46;;;;;;;9.48;5.63;;;1.10;99.90;;;;;;5060871;28;20638;-47
2022/01/08 03:02:13;;;;;;;6.72;4.95;;;1.20;99.90;;;;;;5060520;28;20208;-46
2022/01/08 03:04:41;;;;;;;7.15;5.07;;;1.30;99.90;;;;;;5060148;28;20220;-49
2022/01/08 03:07:08;;;;;;;9.23;5.78;;;1.30;99.90;;;;;;5059849;28;20196;-50
2022/01/08 03:09:40;;;;;;;6.07;5.22;;;1.30;99.90;;;;;;5060226;28;20207;-46
2022/01/08 03:12:09;;;;;;;6.05;4.90;;;1.50;99.90;;;;;;5059523;28;20245;-47
2022/01/08 03:14:36;;;;;;;7.85;5.35;;;1.50;99.90;;;;;;5060070;28;20273;-50
2022/01/08 03:17:04;;;;;;;8.25;5.13;;;1.30;99.90;;;;;;5059777;28;20199;-49
2022/01/08 03:19:35;;;;;;;8.77;5.10;;;1.40;99.90;;;;;;5060172;28;20199;-45
2022/01/08 03:22:04;;;;;;;6.18;4.68;;;1.40;99.90;;;;;;5059837;28;20202;-45
2022/01/08 03:24:31;;;;;;;8.15;5.72;;;1.40;99.90;;;;;;5060191;28;20219;-50
2022/01/08 03:26:59;;;;;;;14.18;5.88;;;1.30;99.90;;;;;;5061960;28;20196;-50
2022/01/08 03:29:27;;;;;;;7.03;5.88;;;1.20;99.90;;;;;;5057579;28;20195;-46
2022/01/08 03:31:55;;;;;;;9.93;5.30;;;1.10;99.90;;;;;;5052348;28;20211;-46
2022/01/08 03:34:22;;;;;;;7.20;5.72;;;1.10;99.90;;;;;;5059883;28;20230;-49
2022/01/08 03:36:49;;;;;;;8.63;4.75;;;1.20;99.90;;;;;;5059624;28;20199;-47
2022/01/08 03:39:18;;;;;;;7.25;6.13;;;1.40;99.90;;;;;;5059124;28;20199;-45
2022/01/08 03:41:45;;;;;;;9.15;5.85;;;1.40;99.90;;;;;;5059928;28;20207;-47
2022/01/08 03:44:13;;;;;;;7.05;5.38;;;1.30;99.90;;;;;;5059481;28;20514;-46
2022/01/08 03:46:40;;;;;;;6.10;4.78;;;1.30;99.90;;;;;;5059534;28;20195;-48
2022/01/08 03:51:35;;;;;;;7.97;4.90;;;1.30;99.90;;;;;;5059864;28;20208;-47
2022/01/08 03:54:02;;;;;;;6.45;5.57;;;1.30;99.90;;;;;;5059131;28;20219;-45
2022/01/08 03:56:30;;;;;;;7.53;5.22;;;1.40;99.90;;;;;;5059426;28;20428;-47
2022/01/08 03:58:57;;;;;;;6.40;5.47;;;1.40;99.90;;;;;;5062174;28;20433;-50
2022/01/08 04:01:25;;;;;;;6.32;5.68;;;1.40;99.90;;;;;;5063434;28;20196;-51
2022/01/08 04:03:52;;;;;;;11.18;5.88;;;1.50;99.90;;;;;;5064040;28;20266;-46
2022/01/08 04:06:19;;;;;;;9.38;6.43;;;1.60;99.90;;;;;;5063978;28;20772;-46
2022/01/08 04:08:46;;;;;;;5.45;4.88;;;1.60;99.90;;;;;;5065065;28;20199;-46
2022/01/08 04:11:13;;;;;;;7.45;4.70;;;1.50;99.90;;;;;;5072019;28;20195;-46
2022/01/08 04:13:42;;;;;;;6.97;4.78;;;1.40;99.90;;;;;;5063890;28;20831;-44
2022/01/08 04:16:13;;;;;;;9.27;6.28;;;1.40;99.90;;;;;;5063713;28;20203;-46
2022/01/08 04:18:40;;;;;;;8.70;4.90;;;1.50;99.90;;;;;;5063870;28;20203;-48
2022/01/08 04:23:47;;;;;;;8.65;6.53;;;1.70;99.90;;;;;;5064019;28;20243;-50
2022/01/08 04:26:14;;;;;;;4.95;4.38;;;1.70;99.90;;;;;;5063880;28;20261;-46
2022/01/08 04:28:41;;;;;;;5.10;4.55;;;1.80;99.90;;;;;;5063216;28;20195;-48
2022/01/08 04:31:09;;;;;;;5.97;5.35;;;1.60;99.90;;;;;;5063288;28;20200;-49
2022/01/08 04:33:36;;;;;;;8.50;5.82;;;1.60;99.90;;;;;;5062961;28;20449;-51
2022/01/08 04:36:04;;;;;;;9.15;5.63;;;1.70;99.90;;;;;;5063712;28;20353;-49
2022/01/08 04:38:32;;;;;;;7.65;5.40;;;1.70;99.90;;;;;;5063794;28;20199;-48
2022/01/08 04:41:00;;;;;;;6.60;5.00;;;1.90;99.90;;;;;;5063188;28;20211;-46
2022/01/08 04:43:28;;;;;;;7.70;5.75;;;1.90;99.90;;;;;;5062921;28;20219;-48
2022/01/08 04:45:56;;;;;;;8.05;5.20;;;2.00;99.90;;;;;;5062957;28;20230;-46
2022/01/08 04:48:23;;;;;;;9.68;5.60;;;2.00;99.90;;;;;;5063875;28;20195;-46
2022/01/08 04:50:51;;;;;;;6.07;4.75;;;1.80;99.90;;;;;;5063556;28;20203;-49
2022/01/08 04:53:18;;;;;;;11.05;5.25;;;1.80;99.90;;;;;;5063503;28;20269;-45
2022/01/08 04:55:45;;;;;;;5.88;5.05;;;1.70;99.90;;;;;;5062615;28;20576;-47
2022/01/08 04:58:13;;;;;;;7.43;5.80;;;1.70;99.90;;;;;;5062436;28;20195;-48
2022/01/08 05:00:41;;;;;;;6.10;4.60;;;1.70;99.90;;;;;;5062423;28;20246;-54
2022/01/08 05:03:09;;;;;;;11.95;5.38;;;1.70;99.90;;;;;;5062066;28;20219;-48
2022/01/08 05:05:36;;;;;;;10.93;5.57;;;1.60;99.90;;;;;;5062240;28;20258;-45
2022/01/08 05:08:04;;;;;;;5.95;5.10;;;1.50;99.90;;;;;;5061814;28;20204;-45
2022/01/08 05:10:33;;;;;;;9.05;6.00;;;1.70;99.90;;;;;;5061256;28;20196;-48
2022/01/08 05:13:04;;;;;;;11.07;6.93;;;1.70;99.90;;;;;;5062104;28;20219;-49
2022/01/08 05:15:32;;;;;;;11.38;6.55;;;1.70;99.90;;;;;;5062511;28;20305;-49
2022/01/08 05:17:59;;;;;;;5.10;4.55;;;1.70;99.90;;;;;;5060985;28;20526;-48
2022/01/08 05:20:31;;;;;;;8.25;4.68;;;1.60;99.90;;;;;;5062646;28;20523;-46
2022/01/08 05:23:02;;;;;;;8.27;5.72;;;1.60;99.90;;;;;;5061980;28;20265;-46
2022/01/08 05:25:30;;;;;;;8.20;6.25;;;1.70;99.90;;;;;;5062816;28;20250;-47
2022/01/08 05:27:57;;;;;;;6.53;5.90;;;1.60;99.90;;;;;;5061794;28;20199;-48
2022/01/08 05:30:26;;;;;;;5.45;4.75;;;1.50;99.90;;;;;;5061720;28;20279;-46
2022/01/08 05:32:54;;;;;;;7.40;5.63;;;1.60;99.90;;;;;;5061685;28;20212;-50
2022/01/08 05:35:23;;;;;;;9.57;5.63;;;1.80;99.90;;;;;;5061807;28;20200;-45
2022/01/08 05:37:51;;;;;;;9.90;5.35;;;1.80;99.90;;;;;;5061818;28;20261;-51
2022/01/08 05:40:19;;;;;;;11.88;5.70;;;1.80;99.90;;;;;;5061638;28;20200;-52
2022/01/08 05:42:47;;;;;;;7.97;5.60;;;1.90;99.90;;;;;;5061377;28;20231;-50
2022/01/08 05:45:14;;;;;;;9.52;6.05;;;2.00;99.90;;;;;;5061489;28;20231;-48
2022/01/08 05:47:41;;;;;;;8.05;6.25;;;1.80;99.90;;;;;;5061446;28;20211;-50
2022/01/08 05:50:09;;;;;;;9.90;7.13;;;1.90;99.90;;;;;;5066260;28;20187;-51
2022/01/08 05:52:37;;;;;;;6.78;5.22;;;2.00;99.90;;;;;;5064451;28;20224;-47
2022/01/08 05:55:05;;;;;;;8.45;6.30;;;1.90;99.90;;;;;;5061560;28;20199;-46
2022/01/08 05:57:32;;;;;;;7.55;5.95;;;2.00;99.90;;;;;;5061385;28;20226;-49
2022/01/08 06:00:01;;;;;;;8.13;5.20;;;2.00;99.90;;;;;;5061902;28;20571;-48
2022/01/08 06:02:28;;;;;;;9.00;6.90;;;2.10;99.90;;;;;;5062066;28;20219;-47
2022/01/08 06:04:55;;;;;;;9.70;5.53;;;2.10;99.90;;;;;;5062140;28;20223;-47
2022/01/08 06:07:22;;;;;;;7.85;5.50;;;2.10;99.90;;;;;;5062069;28;20390;-46
2022/01/08 06:09:50;;;;;;;11.05;7.13;;;2.10;99.90;;;;;;5062481;28;20200;-46
2022/01/08 06:12:17;;;;;;;9.88;6.82;;;1.90;99.90;;;;;;5062673;28;20237;-49
2022/01/08 06:14:45;;;;;;;8.98;7.05;;;1.80;99.90;;;;;;5063569;28;20191;-46
2022/01/08 06:17:12;;;;;;;6.82;4.78;;;1.80;99.90;;;;;;5061004;28;20257;-50
2022/01/08 06:19:39;;;;;;;8.68;6.47;;;2.00;99.90;;;;;;5060671;28;20458;-51
2022/01/08 06:22:06;;;;;;;10.75;7.45;;;1.90;99.90;;;;;;5060755;28;20498;-47
2022/01/08 06:24:33;;;;;;;10.68;6.88;;;1.80;99.90;;;;;;5060515;28;20199;-47
2022/01/08 06:27:00;;;;;;;9.32;6.20;;;2.00;99.90;;;;;;5060736;28;20187;-47
2022/01/08 06:29:28;;;;;;;11.63;7.30;;;2.10;99.90;;;;;;5060371;28;20195;-48
2022/01/08 06:31:55;;;;;;;13.57;6.35;;;2.00;99.90;;;;;;5060609;28;20529;-48
2022/01/08 06:34:23;;;;;;;6.90;5.90;;;1.80;99.90;;;;;;5060225;28;20265;-50
2022/01/08 06:36:50;;;;;;;11.88;7.13;;;1.70;99.90;;;;;;5050954;28;20199;-48
2022/01/08 06:39:18;;;;;;;8.32;6.90;;;1.80;99.90;;;;;;5059652;28;20450;-49
2022/01/08 06:41:45;;;;;;;10.45;7.55;;;1.80;99.90;;;;;;5060276;28;20222;-50
2022/01/08 06:44:12;;;;;;;9.65;6.25;;;1.80;99.90;;;;;;5060409;28;20277;-46
2022/01/08 06:46:43;;;;;;;9.35;7.63;;;1.80;99.90;;;;;;5059691;28;20250;-52
2022/01/08 06:49:12;;;;;;;9.15;7.57;;;1.70;99.90;;;;;;5060342;28;20202;-49
2022/01/08 06:51:39;;;;;;;10.38;6.72;;;1.70;99.90;;;;;;5060036;28;20246;-47
2022/01/08 06:54:07;;;;;;;8.90;6.00;;;1.70;99.90;;;;;;5060453;28;20242;-46
2022/01/08 06:56:34;;;;;;;10.82;8.60;;;1.70;99.90;;;;;;5059841;28;20326;-47
2022/01/08 06:59:01;;;;;;;7.88;6.93;;;1.70;99.90;;;;;;5060271;28;20261;-48
2022/01/08 07:01:29;;;;;;;13.45;7.90;;;1.90;99.90;;;;;;5059988;28;20510;-50
2022/01/08 07:03:56;;;;;;;10.85;7.68;;;1.90;99.90;;;;;;5059967;28;20227;-47
2022/01/08 07:06:23;;;;;;;10.48;8.50;;;1.80;99.90;;;;;;5060227;28;20232;-47
2022/01/08 07:08:53;;;;;;;12.43;8.10;;;1.90;99.90;;;;;;5059907;28;20202;-48
2022/01/08 07:11:20;;;;;;;9.43;7.40;;;1.90;99.90;;;;;;5060504;28;20442;-46
2022/01/08 07:13:47;;;;;;;10.10;7.20;;;2.00;99.90;;;;;;5059734;28;20231;-46
2022/01/08 07:16:14;;;;;;;11.48;7.22;;;2.00;99.90;;;;;;5059807;28;20230;-45
2022/01/08 07:18:41;;;;;;;9.25;7.72;;;1.90;99.90;;;;;;5059826;28;20226;-48
2022/01/08 07:21:09;;;;;;;9.35;6.45;;;2.10;99.90;;;;;;5060178;28;20650;-45
2022/01/08 07:23:36;;;;;;;14.10;8.23;;;2.10;99.90;;;;;;5059593;28;20246;-45
2022/01/08 07:26:03;;;;;;;10.38;6.00;;;2.00;99.90;;;;;;5059853;28;20586;-49
2022/01/08 07:28:30;;;;;;;10.55;7.22;;;2.20;99.90;;;;;;5061623;28;20386;-49
2022/01/08 07:30:58;;;;;;;10.25;7.95;;;2.20;99.90;;;;;;5062711;28;20208;-45
2022/01/08 07:33:25;;;;;;;11.85;7.88;;;2.20;99.90;;;;;;5061691;28;20696;-49
2022/01/08 07:35:52;;;;;;;9.95;6.72;;;2.10;99.90;;;;;;5062607;28;20208;-47
2022/01/08 07:38:19;;;;;;;12.27;8.90;;;2.10;99.90;;;;;;5061998;28;20245;-48
2022/01/08 07:40:51;;;;;;;9.38;6.60;;;2.20;99.90;;;;;;5062962;28;20199;-46
2022/01/08 07:43:19;;;;;;;12.77;7.47;;;2.10;99.90;;;;;;5063245;28;20220;-52
2022/01/08 07:45:46;;;;;;;10.60;7.32;;;2.20;99.90;;;;;;5062816;28;20261;-46
2022/01/08 07:48:13;;;;;;;10.70;7.53;;;2.10;99.90;;;;;;5063729;28;20388;-46
2022/01/08 07:50:42;;;;;;;11.38;7.97;;;2.10;99.90;;;;;;5062927;28;20196;-49
2022/01/08 07:53:09;;;;;;;10.43;8.95;;;2.00;99.90;;;;;;5063090;28;20230;-48
2022/01/08 07:55:37;;;;;;;12.65;8.18;;;2.00;99.90;;;;;;5063148;28;20425;-48
2022/01/08 07:58:04;;;;;;;9.05;7.63;;;2.10;99.90;;;;;;5063041;28;20655;-45
2022/01/08 08:00:31;;;;;;;10.65;8.65;;;2.10;99.90;;;;;;5063202;28;20196;-50
2022/01/08 08:02:59;;;;;;;16.55;8.45;;;2.30;99.90;;;;;;5058851;28;20224;-47
2022/01/08 08:05:26;;;;;;;11.25;6.85;;;2.30;99.90;;;;;;5060658;28;20227;-46
2022/01/08 08:07:55;;;;;;;11.13;7.10;;;2.20;99.90;;;;;;5062449;28;20432;-47
2022/01/08 08:10:25;;;;;;;13.18;8.40;;;2.20;99.90;;;;;;5062842;28;20502;-49
2022/01/08 08:12:55;;;;;;;12.65;8.70;;;2.20;99.90;;;;;;5062359;28;20232;-51
2022/01/08 08:15:23;;;;;;;14.45;9.60;;;2.30;99.90;;;;;;5062483;28;20201;-45
2022/01/08 08:17:51;;;;;;;15.30;8.55;;;2.10;99.90;;;;;;5061592;28;20199;-51
2022/01/08 08:20:19;;;;;;;17.55;10.32;;;2.10;99.90;;;;;;5062858;28;20200;-49
2022/01/08 08:22:46;;;;;;;13.20;8.98;;;2.00;99.90;;;;;;5063218;28;20273;-51
2022/01/08 08:25:13;;;;;;;16.52;9.15;;;2.10;99.90;;;;;;5063023;28;20437;-50
2022/01/08 08:27:40;;;;;;;13.07;9.18;;;2.10;99.90;;;;;;5062685;28;20206;-50
2022/01/08 08:30:09;;;;;;;11.60;9.50;;;2.00;99.90;;;;;;5062796;28;20246;-48
2022/01/08 08:32:37;;;;;;;14.75;10.73;;;2.40;99.90;;;;;;5063177;28;20395;-48
2022/01/08 08:35:05;;;;;;;13.30;10.38;;;2.70;99.90;;;;;;5062501;28;20195;-46
2022/01/08 08:37:35;;;;;;;12.77;9.35;;;3.00;99.90;;;;;;5062800;28;20196;-49
2022/01/08 08:40:09;;;;;;;20.60;11.60;;;3.00;99.90;;;;;;5062958;28;20196;-50
2022/01/08 08:42:37;;;;;;;20.75;14.00;;;2.90;99.90;;;;;;5062616;28;20216;-50
2022/01/08 08:45:05;;;;;;;15.52;11.30;;;2.80;99.90;;;;;;5058104;28;20634;-48
2022/01/08 08:47:36;;;;;;;17.70;10.10;;;2.80;99.90;;;;;;5061999;28;20200;-48
2022/01/08 08:50:06;;;;;;;15.20;9.73;;;2.90;99.90;;;;;;5062852;28;20259;-47
2022/01/08 08:52:34;;;;;;;14.65;10.10;;;2.80;99.90;;;;;;5062261;28;20231;-48
2022/01/08 08:55:01;;;;;;;20.23;9.07;;;3.10;99.90;;;;;;5062582;28;20205;-47
2022/01/08 08:57:28;;;;;;;19.02;9.70;;;3.60;99.90;;;;;;5064841;28;20201;-47
2022/01/08 08:59:56;;;;;;;12.60;8.90;;;3.80;99.90;;;;;;5064915;28;20438;-50
2022/01/08 09:02:23;;;;;;;13.27;8.68;;;3.80;99.90;;;;;;5063019;28;20224;-49
2022/01/08 09:04:51;;;;;;;12.00;8.73;;;3.50;99.90;;;;;;5061814;28;20201;-47
2022/01/08 09:07:19;;;;;;;14.18;8.63;;;3.40;99.90;;;;;;5062250;28;20224;-47
2022/01/08 09:09:46;;;;;;;13.98;8.70;;;3.20;99.90;;;;;;5054526;28;20205;-46
2022/01/08 09:12:16;;;;;;;15.43;9.73;;;3.10;99.90;;;;;;5051552;28;20252;-49
2022/01/08 09:14:43;;;;;;;13.95;8.60;;;3.10;99.90;;;;;;5046390;28;20425;-48
2022/01/08 09:17:13;;;;;;;13.23;7.88;;;3.10;99.90;;;;;;5044272;28;20201;-47
2022/01/08 09:19:40;;;;;;;12.48;8.73;;;3.30;99.90;;;;;;5045782;28;20199;-45
2022/01/08 09:22:08;;;;;;;15.75;9.07;;;3.50;99.90;;;;;;5044739;28;20208;-49
2022/01/08 09:24:36;;;;;;;14.20;9.07;;;3.50;99.90;;;;;;5045665;28;20203;-48
2022/01/08 09:27:04;;;;;;;11.10;8.90;;;3.80;99.90;;;;;;5043409;28;20232;-46
2022/01/08 09:29:32;;;;;;;16.98;9.20;;;3.90;99.90;;;;;;5048123;28;20198;-48
2022/01/08 09:32:00;;;;;;;13.90;8.10;;;3.90;99.90;;;;;;5044583;28;20218;-45
2022/01/08 09:34:27;;;;;;;9.05;6.97;;;3.90;99.90;;;;;;5045619;28;20255;-44
2022/01/08 09:36:54;;;;;;;12.68;7.18;;;3.80;99.90;;;;;;5046464;28;20254;-47
2022/01/08 09:39:21;;;;;;;13.55;8.50;;;3.70;99.90;;;;;;5059755;28;20205;-46
2022/01/08 09:41:49;;;;;;;12.60;8.82;;;3.70;99.90;;;;;;5058634;28;20205;-46
2022/01/08 09:44:16;;;;;;;10.00;7.88;;;3.70;99.90;;;;;;5056722;28;20270;-48
2022/01/08 09:46:44;;;;;;;12.48;9.00;;;3.70;99.90;;;;;;5061488;28;20221;-47
2022/01/08 09:49:11;;;;;;;9.75;7.47;;;4.00;99.90;;;;;;5051526;28;20354;-49
2022/01/08 09:51:38;;;;;;;10.85;7.95;;;4.10;99.90;;;;;;5059799;28;20277;-47
2022/01/08 09:54:06;;;;;;;12.98;7.90;;;4.30;99.90;;;;;;5061020;28;20217;-50
2022/01/08 09:56:33;;;;;;;11.38;7.80;;;4.40;99.90;;;;;;5060141;28;20216;-49
2022/01/08 09:59:01;;;;;;;10.60;7.70;;;4.60;99.90;;;;;;5061792;28;20202;-48
2022/01/08 10:01:34;;;;;;;10.30;6.60;;;4.90;99.90;;;;;;5061973;28;20259;-49
2022/01/08 10:04:03;;;;;;;11.23;7.70;;;5.10;99.90;;;;;;5061982;28;20234;-47
2022/01/08 10:06:33;;;;;;;14.45;6.78;;;5.10;99.90;;;;;;5062370;28;20250;-47
2022/01/08 10:09:00;;;;;;;10.30;6.93;;;5.20;99.90;;;;;;5062194;28;20378;-49
2022/01/08 10:11:28;;;;;;;9.82;7.25;;;5.20;99.90;;;;;;5061728;28;20205;-46
2022/01/08 10:14:04;;;;;;;11.85;7.60;;;4.70;99.90;;;;;;5061177;28;20264;-51
2022/01/08 10:19:24;;;;;;;9.32;8.23;;;4.10;99.90;;;;;;5060090;28;20670;-49
2022/01/08 10:21:52;;;;;;;12.10;8.00;;;4.00;99.90;;;;;;5060645;28;20268;-50
2022/01/08 10:24:29;;;;;;;10.77;7.20;;;4.10;99.90;;;;;;5060873;28;20222;-52
2022/01/08 10:27:04;;;;;;;8.77;6.85;;;4.40;99.90;;;;;;5060650;28;20237;-48
2022/01/08 10:29:32;;;;;;;5.90;4.72;;;4.20;99.90;;;;;;5060927;28;20248;-50
2022/01/08 10:32:04;;;;;;;11.25;8.15;;;4.30;99.90;;;;;;5060619;28;20198;-51
2022/01/08 10:34:32;;;;;;;14.18;7.88;;;4.40;99.90;;;;;;5060785;28;20198;-51
2022/01/08 10:37:02;;;;;;;6.43;5.72;;;4.50;99.90;;;;;;5060228;28;20557;-50
2022/01/08 10:39:33;;;;;;;8.45;6.00;;;4.60;99.90;;;;;;5060946;28;20229;-49
2022/01/08 10:42:21;;;;;;;6.80;5.53;;;4.80;99.90;;;;;;5060721;28;20201;-43
2022/01/08 10:44:50;;;;;;;7.00;5.70;;;5.00;99.90;;;;;;5060416;28;20206;-50
2022/01/08 10:47:21;;;;;;;12.52;7.30;;;5.00;99.90;;;;;;5061045;28;20222;-50
2022/01/08 10:50:05;;;;;;;6.53;5.28;;;5.00;99.90;;;;;;5063258;28;20265;-45
2022/01/08 10:52:46;;;;;;;10.15;7.30;;;5.10;99.90;;;;;;5066670;28;20235;-49
2022/01/08 10:55:28;;;;;;;15.20;9.13;;;5.20;99.90;;;;;;5060074;28;20198;-50
2022/01/08 10:57:55;;;;;;;8.05;6.50;;;5.20;99.90;;;;;;5060062;28;20202;-47
2022/01/08 11:00:30;;;;;;;8.88;5.90;;;5.10;99.90;;;;;;5060018;28;20202;-49
2022/01/08 11:02:58;;;;;;;11.65;7.68;;;5.10;99.90;;;;;;5060168;28;20219;-45
2022/01/08 11:05:27;;;;;;;17.50;7.25;;;5.10;99.90;;;;;;5059878;28;20209;-47
2022/01/08 11:08:13;;;;;;;8.38;6.32;;;5.20;99.90;;;;;;5059463;28;20552;-52
2022/01/08 11:10:42;;;;;;;7.43;5.75;;;5.40;99.90;;;;;;5059681;28;20249;-48
2022/01/08 11:13:14;;;;;;;6.45;5.95;;;5.40;99.90;;;;;;5060057;28;20218;-51
2022/01/08 11:15:51;;;;;;;8.88;6.75;;;5.30;99.90;;;;;;5059533;28;20199;-49
2022/01/08 11:18:19;;;;;;;10.07;6.20;;;5.30;99.90;;;;;;5059713;28;20203;-47
2022/01/08 11:20:56;;;;;;;10.23;6.80;;;5.50;99.90;;;;;;5059794;28;20199;-48
2022/01/08 11:23:30;;;;;;;11.48;6.68;;;5.80;99.90;;;;;;5060044;28;20226;-47
2022/01/08 11:25:58;;;;;;;7.57;6.07;;;5.70;99.90;;;;;;5059736;28;20530;-51
2022/01/08 11:28:34;;;;;;;9.27;5.20;;;5.60;99.90;;;;;;5059833;28;20203;-46
2022/01/08 11:31:04;;;;;;;13.45;6.70;;;5.70;99.90;;;;;;5059742;28;20203;-47
2022/01/08 11:33:35;;;;;;;8.45;6.80;;;5.90;99.90;;;;;;5059514;28;20300;-52
2022/01/08 11:36:03;;;;;;;7.03;5.97;;;6.00;99.90;;;;;;5059759;28;20512;-47
2022/01/08 11:38:30;;;;;;;11.48;8.70;;;5.90;99.90;;;;;;5059688;28;20203;-48
2022/01/08 11:40:59;;;;;;;8.18;5.20;;;5.90;99.90;;;;;;5060452;28;20236;-46
2022/01/08 11:43:28;;;;;;;7.63;5.53;;;6.00;99.90;;;;;;5060213;28;20212;-47
2022/01/08 11:46:02;;;;;;;14.07;8.10;;;5.80;99.90;;;;;;5059876;28;20200;-47
2022/01/08 11:48:30;;;;;;;9.43;7.13;;;5.70;99.90;;;;;;5059838;28;20202;-46
2022/01/08 11:51:00;;;;;;;12.40;8.13;;;5.40;99.90;;;;;;5060081;28;20245;-51
2022/01/08 11:53:32;;;;;;;8.25;7.43;;;5.30;99.90;;;;;;5059869;28;20235;-45
2022/01/08 11:56:03;;;;;;;8.05;7.25;;;5.30;99.90;;;;;;5060169;28;20210;-49
2022/01/08 11:58:35;;;;;;;8.73;7.72;;;5.30;99.90;;;;;;5060306;28;20233;-48
2022/01/08 12:01:04;;;;;;;10.20;5.97;;;5.20;99.90;;;;;;5060054;28;20196;-46
2022/01/08 12:03:39;;;;;;;13.07;6.95;;;4.90;99.90;;;;;;5060113;28;20224;-47
2022/01/08 12:06:18;;;;;;;7.43;6.55;;;4.70;99.90;;;;;;5059892;28;20542;-47
2022/01/08 12:09:16;;;;;;;8.90;6.40;;;4.60;99.90;;;;;;5058575;28;20198;-47
2022/01/08 12:12:04;;;;;;;8.90;6.63;;;4.60;99.90;;;;;;5059176;28;20214;-47
2022/01/08 12:14:35;;;;;;;16.55;7.63;;;4.50;99.90;;;;;;5060347;28;20244;-45
2022/01/08 12:17:18;;;;;;;16.55;8.05;;;4.70;99.90;;;;;;5059264;28;20405;-49
2022/01/08 12:19:55;;;;;;;11.77;7.50;;;4.80;99.90;;;;;;5061203;28;20237;-46
2022/01/08 12:22:23;;;;;;;11.95;8.77;;;4.60;99.90;;;;;;5062702;28;20230;-48
2022/01/08 12:24:51;;;;;;;8.43;7.50;;;4.50;99.90;;;;;;5063277;28;20316;-48
2022/01/08 12:27:22;;;;;;;12.50;7.53;;;4.40;99.90;;;;;;5062814;28;20288;-49
2022/01/08 12:29:49;;;;;;;7.95;7.18;;;4.30;99.90;;;;;;5064413;28;20445;-46
2022/01/08 12:32:37;;;;;;;9.95;7.20;;;4.40;99.90;;;;;;5075049;28;20244;-48
2022/01/08 12:35:37;;;;;;;11.73;8.43;;;4.70;99.90;;;;;;5063545;28;20222;-48
2022/01/08 12:38:21;;;;;;;9.75;7.38;;;4.80;99.90;;;;;;5063377;28;20226;-52
2022/01/08 12:40:49;;;;;;;7.78;6.95;;;4.70;99.90;;;;;;5063453;28;20239;-49
2022/01/08 12:43:30;;;;;;;8.90;6.28;;;4.70;99.90;;;;;;5062135;28;20549;-48
2022/01/08 12:46:19;;;;;;;8.60;7.45;;;4.30;99.90;;;;;;5062660;28;20210;-51
2022/01/08 12:49:05;;;;;;;15.50;8.73;;;4.20;99.90;;;;;;5062305;28;20211;-47
2022/01/08 12:51:55;;;;;;;10.40;7.82;;;4.10;99.90;;;;;;5062672;28;20235;-49
2022/01/08 12:54:23;;;;;;;11.48;8.05;;;4.00;99.90;;;;;;5062401;28;20739;-47
2022/01/08 12:56:55;;;;;;;10.98;8.05;;;4.00;99.90;;;;;;5062626;28;20275;-50
2022/01/08 12:59:31;;;;;;;12.48;6.82;;;4.20;99.90;;;;;;5062694;28;20221;-47
2022/01/08 13:01:59;;;;;;;9.48;6.47;;;4.10;99.90;;;;;;5062789;28;20400;-48
2022/01/08 13:04:27;;;;;;;8.80;5.63;;;4.00;99.90;;;;;;5062650;28;20244;-48
2022/01/08 13:06:54;;;;;;;8.25;5.90;;;4.10;99.90;;;;;;5061981;28;20224;-48
2022/01/08 13:09:22;;;;;;;9.27;6.75;;;4.20;99.90;;;;;;5052315;28;20202;-48
2022/01/08 13:11:49;;;;;;;9.75;6.30;;;4.20;99.90;;;;;;5061647;28;20202;-47
2022/01/08 13:14:19;;;;;;;11.25;6.63;;;4.10;99.90;;;;;;5062125;28;20345;-50
2022/01/08 13:16:48;;;;;;;14.85;7.93;;;4.10;99.90;;;;;;5061589;28;20206;-48
2022/01/08 13:19:23;;;;;;;13.57;6.97;;;4.20;99.90;;;;;;5061932;28;20257;-50
2022/01/08 13:21:54;;;;;;;8.25;6.53;;;4.00;99.90;;;;;;5061870;28;20202;-47
2022/01/08 13:24:40;;;;;;;9.32;5.95;;;3.80;99.90;;;;;;5059599;28;20242;-49
2022/01/08 13:27:15;;;;;;;11.07;6.88;;;3.80;99.90;;;;;;5053121;28;20233;-47
2022/01/08 13:29:43;;;;;;;10.82;8.60;;;3.70;99.90;;;;;;5060112;28;20198;-51